Time;durP1;ratioP1;P1;durP2;ratioP2;P2;SDS_P1;SDS_P2;PMS_P1;PMS_P2;Temp;Humidity;BMP_temperature;BMP_pressure;BME280_temperature;BME280_humidity;BME280_pressure;Samples;Min_cycle;Max_cycle;Signal;HPM_P1;HPM_P2
2022/10/27 00:00:47;;;;;;;;;6.50;6.50;;;;;16.91;100.00;101165.88;4930097;28;45556;-85
2022/10/27 00:03:14;;;;;;;;;4.75;4.75;;;;;16.92;100.00;101166.78;4930680;28;45370;-86
2022/10/27 00:05:40;;;;;;;;;7.00;4.00;;;;;16.88;100.00;101160.50;4911506;28;45653;-85
2022/10/27 00:08:05;;;;;;;;;3.00;3.00;;;;;16.86;100.00;101165.00;4929932;28;45390;-85
2022/10/27 00:10:31;;;;;;;;;5.75;5.25;;;;;16.89;100.00;101178.44;4913185;28;45386;-85
2022/10/27 00:12:56;;;;;;;;;4.50;4.50;;;;;16.87;100.00;101177.56;4912773;28;45606;-85
2022/10/27 00:15:22;;;;;;;;;3.50;3.50;;;;;16.82;100.00;101171.28;4929760;28;45476;-85
2022/10/27 00:17:47;;;;;;;;;4.50;4.50;;;;;16.82;100.00;101176.66;4912868;28;45959;-85
2022/10/27 00:20:13;;;;;;;;;2.25;1.00;;;;;16.87;100.00;101182.94;4929069;28;45459;-85
2022/10/27 00:22:38;;;;;;;;;5.67;4.33;;;;;16.87;100.00;101184.72;4927529;28;45424;-85
2022/10/27 00:25:04;;;;;;;;;3.75;3.75;;;;;16.82;100.00;101176.66;4910438;28;48586;-85
2022/10/27 00:27:30;;;;;;;;;1.00;1.00;;;;;16.84;100.00;101190.97;4927822;28;45468;-85
2022/10/27 00:29:56;;;;;;;;;4.33;4.33;;;;;16.77;100.00;101175.78;4929435;28;45373;-85
2022/10/27 00:32:21;;;;;;;;;4.67;4.67;;;;;16.76;100.00;101182.94;4927889;28;45469;-84
2022/10/27 00:34:46;;;;;;;;;5.00;4.00;;;;;16.75;100.00;101174.91;4927254;28;45874;-85
2022/10/27 00:37:12;;;;;;;;;7.33;6.00;;;;;16.76;100.00;101172.22;4926049;28;45329;-84
2022/10/27 00:39:37;;;;;;;;;5.25;5.00;;;;;16.72;100.00;101158.78;4912860;28;45421;-84
2022/10/27 00:42:04;;;;;;;;;6.00;4.00;;;;;16.76;100.00;101173.97;4928944;28;45372;-84
2022/10/27 00:44:46;;;;;;;;;5.00;5.00;;;;;16.71;100.00;101165.94;4927206;28;45401;-84
2022/10/27 00:47:20;;;;;;;;;5.00;5.00;;;;;16.72;100.00;101175.78;4928667;28;44875;-84
2022/10/27 00:49:59;;;;;;;;;5.00;3.75;;;;;16.67;100.00;101163.28;4930014;28;45545;-85
2022/10/27 00:52:33;;;;;;;;;6.50;6.00;;;;;16.67;100.00;101179.41;4929366;28;45487;-84
2022/10/27 00:55:10;;;;;;;;;5.00;5.00;;;;;16.68;100.00;101170.44;4927993;28;46758;-83
2022/10/27 00:57:37;;;;;;;;;4.00;4.00;;;;;16.65;100.00;101167.78;4927810;28;45674;-84
2022/10/27 01:00:04;;;;;;;;;5.00;5.00;;;;;16.64;100.00;101165.97;4947194;28;45606;-84
2022/10/27 01:02:31;;;;;;;;;5.75;5.75;;;;;16.57;100.00;101154.38;4950057;28;45800;-84
2022/10/27 01:05:03;;;;;;;;;4.00;4.00;;;;;16.60;100.00;101154.34;4933150;28;48106;-84
2022/10/27 01:07:28;;;;;;;;;6.25;5.00;;;;;16.58;100.00;101162.44;4949056;28;45423;-84
2022/10/27 01:10:00;;;;;;;;;2.25;2.25;;;;;16.55;100.00;101159.75;4932502;28;45372;-85
2022/10/27 01:12:26;;;;;;;;;0.75;0.75;;;;;16.54;100.00;101152.59;4932627;28;44983;-85
2022/10/27 01:14:52;;;;;;;;;5.00;5.00;;;;;16.46;100.00;101145.47;4931700;28;47219;-84
2022/10/27 01:17:32;;;;;;;;;5.00;3.75;;;;;16.52;100.00;101157.09;4932002;28;44952;-84
2022/10/27 01:20:18;;;;;;;;;4.00;4.00;;;;;16.49;100.00;101157.09;4947773;28;45477;-84
2022/10/27 01:22:52;;;;;;;;;4.50;3.00;;;;;16.41;100.00;101142.78;4932574;28;45173;-84
2022/10/27 01:25:50;;;;;;;;;4.33;4.33;;;;;16.46;100.00;101146.38;4931934;28;47002;-84
2022/10/27 01:28:40;;;;;;;;;6.50;5.00;;;;;16.43;100.00;101145.47;4840425;29;45425;-84
2022/10/27 01:31:10;;;;;;;;;3.75;3.75;;;;;16.38;100.00;101146.41;4840596;29;45477;-84
2022/10/27 01:34:18;;;;;;;;;5.75;5.00;;;;;16.34;100.00;101135.66;4839433;29;45432;-84
2022/10/27 01:36:52;;;;;;;;;3.00;2.75;;;;;16.32;100.00;101138.38;4787357;29;47143;-84
2022/10/27 01:39:26;;;;;;;;;3.25;3.00;;;;;16.32;100.00;101140.13;4802842;29;45564;-84
2022/10/27 01:42:40;;;;;;;;;5.50;4.25;;;;;16.31;100.00;101141.03;4787847;29;45663;-84
2022/10/27 01:45:11;;;;;;;;;5.50;4.00;;;;;16.23;100.00;101137.50;4731972;29;45557;-84
2022/10/27 01:47:47;;;;;;;;;5.00;3.00;;;;;16.26;100.00;101140.16;4748860;29;45423;-84
2022/10/27 01:50:17;;;;;;;;;3.75;3.75;;;;;16.17;100.00;101131.22;4748826;29;44881;-84
2022/10/27 01:52:44;;;;;;;;;3.50;3.50;;;;;16.20;100.00;101144.66;4749318;29;44795;-84
2022/10/27 01:55:18;;;;;;;;;3.00;3.00;;;;;16.18;100.00;101141.09;4749251;29;45459;-84
2022/10/27 01:57:51;;;;;;;;;5.00;3.67;;;;;16.16;100.00;101140.19;4749498;29;47023;-84
2022/10/27 02:00:16;;;;;;;;;4.67;4.00;;;;;16.15;100.00;101145.56;4762536;29;45414;-84
2022/10/27 02:02:44;;;;;;;;;3.50;3.50;;;;;16.13;100.00;101140.19;4748707;29;45876;-84
2022/10/27 02:05:43;;;;;;;;;6.75;4.75;;;;;16.12;100.00;101135.72;4791933;29;45545;-83
2022/10/27 02:08:29;;;;;;;;;4.75;4.75;;;;;16.06;100.00;101124.09;4816961;29;48032;-84
2022/10/27 02:11:02;;;;;;;;;6.00;4.50;;;;;16.03;100.00;101111.59;4817105;29;45742;-85
2022/10/27 02:13:33;;;;;;;;;3.50;2.75;;;;;16.03;100.00;101116.97;4841181;29;45957;-84
2022/10/27 02:16:02;;;;;;;;;5.50;3.75;;;;;16.03;100.00;101119.63;4896139;28;45452;-84
2022/10/27 02:18:32;;;;;;;;;5.67;5.67;;;;;16.02;100.00;101115.19;4918848;28;46770;-85
2022/10/27 02:21:03;;;;;;;;;5.00;4.00;;;;;16.04;100.00;101123.22;4933851;28;45417;-84
2022/10/27 02:23:29;;;;;;;;;5.25;5.25;;;;;15.95;100.00;101106.25;4935622;28;44668;-85
2022/10/27 02:26:09;;;;;;;;;3.00;3.00;;;;;16.01;100.00;101116.06;4935461;28;44859;-85
2022/10/27 02:28:40;;;;;;;;;6.75;6.75;;;;;15.99;100.00;101117.88;4934671;28;45386;-85
2022/10/27 02:31:07;;;;;;;;;5.00;5.00;;;;;15.96;100.00;101112.53;4913683;28;45405;-85
2022/10/27 02:33:35;;;;;;;;;4.00;4.00;;;;;15.93;100.00;101109.84;4930078;28;45571;-84
2022/10/27 02:36:01;;;;;;;;;5.00;5.00;;;;;15.97;100.00;101108.94;4930569;28;45517;-85
2022/10/27 02:38:29;;;;;;;;;5.00;5.00;;;;;15.92;100.00;101095.53;4928363;28;46669;-85
2022/10/27 02:40:54;;;;;;;;;3.67;3.67;;;;;15.94;100.00;101092.84;4930040;28;45405;-85
2022/10/27 02:43:20;;;;;;;;;5.00;3.00;;;;;15.94;100.00;101101.78;4913106;28;45287;-85
2022/10/27 02:45:46;;;;;;;;;4.33;4.33;;;;;15.93;100.00;101102.66;4913710;28;45860;-85
2022/10/27 02:48:12;;;;;;;;;7.00;5.00;;;;;15.94;100.00;101092.84;4931657;28;45602;-84
2022/10/27 02:50:37;;;;;;;;;5.00;4.00;;;;;15.92;100.00;101097.34;4929169;28;45537;-85
2022/10/27 02:53:03;;;;;;;;;7.33;5.33;;;;;15.90;100.00;101091.06;4929043;28;45845;-84
2022/10/27 02:55:28;;;;;;;;;3.67;3.67;;;;;15.92;100.00;101117.00;4929226;28;45440;-84
2022/10/27 02:57:55;;;;;;;;;4.00;4.00;;;;;15.92;100.00;101105.38;4929882;28;45593;-85
2022/10/27 03:00:20;;;;;;;;;3.67;3.00;;;;;15.91;100.00;101103.56;4916472;28;45625;-84
2022/10/27 03:02:47;;;;;;;;;3.00;3.00;;;;;15.87;100.00;101101.78;4932721;28;45466;-85
2022/10/27 03:05:13;;;;;;;;;4.75;4.00;;;;;15.89;100.00;101100.00;4933896;28;45314;-83
2022/10/27 03:07:39;;;;;;;;;3.00;3.00;;;;;15.91;100.00;101111.63;4916494;28;46702;-84
2022/10/27 03:10:05;;;;;;;;;3.00;2.75;;;;;15.90;100.00;101107.16;4933715;28;44803;-85
2022/10/27 03:12:30;;;;;;;;;6.00;5.00;;;;;15.85;100.00;101111.63;4917941;28;45737;-84
2022/10/27 03:14:56;;;;;;;;;5.00;3.25;;;;;15.83;100.00;101094.66;4917719;28;45360;-84
2022/10/27 03:17:21;;;;;;;;;7.00;5.00;;;;;15.77;100.00;101088.44;4935688;28;45412;-84
2022/10/27 03:19:47;;;;;;;;;2.25;2.25;;;;;15.78;100.00;101084.81;4935536;28;45300;-85
2022/10/27 03:22:15;;;;;;;;;3.75;3.75;;;;;15.80;100.00;101096.44;4934982;28;45360;-85
2022/10/27 03:24:53;;;;;;;;;5.33;4.00;;;;;15.78;100.00;101086.63;4901764;28;45633;-85
2022/10/27 03:27:18;;;;;;;;;3.00;3.00;;;;;15.80;100.00;101095.56;4918102;28;46287;-85
2022/10/27 03:29:44;;;;;;;;;5.00;5.00;;;;;15.82;100.00;101103.63;4917167;28;45445;-85
2022/10/27 03:32:10;;;;;;;;;4.67;4.67;;;;;15.74;100.00;101099.13;4917114;28;44790;-84
2022/10/27 03:34:36;;;;;;;;;4.00;4.00;;;;;15.77;100.00;101096.47;4917325;28;45473;-85
2022/10/27 03:37:07;;;;;;;;;4.25;4.25;;;;;15.77;100.00;101101.84;4916683;28;45381;-84
2022/10/27 03:39:33;;;;;;;;;5.33;4.67;;;;;15.73;100.00;101088.41;4933270;28;45303;-85
2022/10/27 03:41:59;;;;;;;;;4.00;2.50;;;;;15.77;100.00;101093.78;4916619;28;45072;-84
2022/10/27 03:44:25;;;;;;;;;3.00;3.00;;;;;15.74;100.00;101085.72;4913272;28;45390;-85
2022/10/27 03:46:50;;;;;;;;;5.33;4.67;;;;;15.76;100.00;101089.31;4930349;28;46299;-83
2022/10/27 03:49:20;;;;;;;;;5.00;5.00;;;;;15.77;100.00;101101.84;4930693;28;45325;-84
2022/10/27 03:51:45;;;;;;;;;4.00;3.00;;;;;15.76;100.00;101096.47;4929947;28;45552;-83
2022/10/27 03:54:10;;;;;;;;;4.00;4.00;;;;;15.76;100.00;101091.97;4930998;28;45338;-84
2022/10/27 03:56:36;;;;;;;;;2.50;2.25;;;;;15.68;100.00;101080.34;4912979;28;46648;-84
2022/10/27 03:59:01;;;;;;;;;4.00;4.00;;;;;15.72;100.00;101090.22;4913817;28;45422;-84
2022/10/27 04:01:32;;;;;;;;;3.50;3.50;;;;;15.75;100.00;101090.22;4930856;28;44759;-83
2022/10/27 04:03:57;;;;;;;;;4.00;4.00;;;;;15.73;100.00;101086.59;4913830;28;45473;-84
2022/10/27 04:06:23;;;;;;;;;4.75;4.75;;;;;15.76;100.00;101088.41;4930474;28;45516;-84
2022/10/27 04:08:48;;;;;;;;;8.50;6.00;;;;;15.70;100.00;101089.28;4913187;28;45514;-84
2022/10/27 04:11:17;;;;;;;;;5.00;3.50;;;;;15.73;100.00;101094.66;4929880;28;45431;-84
2022/10/27 04:13:42;;;;;;;;;5.75;5.75;;;;;15.75;100.00;101111.66;4917157;28;45725;-85
2022/10/27 04:16:08;;;;;;;;;5.00;4.75;;;;;15.60;100.00;101079.47;4916145;28;46801;-86
2022/10/27 04:18:38;;;;;;;;;4.50;4.00;;;;;15.71;100.00;101101.78;4915820;28;45458;-85
2022/10/27 04:21:05;;;;;;;;;4.00;4.00;;;;;15.73;100.00;101110.75;4932702;28;45487;-85
2022/10/27 04:23:31;;;;;;;;;5.00;5.00;;;;;15.68;100.00;101091.06;4933767;28;45428;-85
2022/10/27 04:25:58;;;;;;;;;4.50;4.50;;;;;15.67;100.00;101094.63;4932992;28;47038;-85
2022/10/27 04:28:24;;;;;;;;;3.75;3.75;;;;;15.67;100.00;101091.94;4917326;28;45298;-85
2022/10/27 04:30:52;;;;;;;;;5.00;5.00;;;;;15.64;100.00;101088.41;4933075;28;45319;-84
2022/10/27 04:33:18;;;;;;;;;6.00;4.25;;;;;15.59;100.00;101078.59;4916527;28;45974;-84
2022/10/27 04:35:43;;;;;;;;;3.75;3.75;;;;;15.61;100.00;101073.19;4916076;28;46857;-84
2022/10/27 04:38:09;;;;;;;;;4.00;3.00;;;;;15.60;100.00;101071.44;4932493;28;45444;-85
2022/10/27 04:40:34;;;;;;;;;4.25;4.00;;;;;15.61;100.00;101070.50;4915285;28;45585;-84
2022/10/27 04:43:00;;;;;;;;;5.75;4.00;;;;;15.59;100.00;101070.53;4914334;28;45488;-84
2022/10/27 04:45:25;;;;;;;;;5.00;5.00;;;;;15.54;100.00;101048.19;4914719;28;47215;-84
2022/10/27 04:47:51;;;;;;;;;5.00;5.00;;;;;15.58;100.00;101057.13;4916304;28;45428;-85
2022/10/27 04:50:17;;;;;;;;;6.25;5.25;;;;;15.60;100.00;101066.06;4917524;28;45521;-84
2022/10/27 04:52:55;;;;;;;;;5.75;5.75;;;;;15.59;100.00;101069.63;4934171;28;45413;-85
2022/10/27 04:55:20;;;;;;;;;5.00;5.00;;;;;15.58;100.00;101070.53;4933469;28;46925;-84
2022/10/27 04:57:49;;;;;;;;;5.00;5.00;;;;;15.60;100.00;101077.66;4916855;28;45460;-83
2022/10/27 05:00:28;;;;;;;;;6.00;6.00;;;;;15.60;100.00;101076.78;4948579;28;45963;-84
2022/10/27 05:02:58;;;;;;;;;8.67;7.67;;;;;15.58;100.00;101079.47;4953374;28;45353;-84
2022/10/27 05:08:45;;;;;;;;;7.33;7.33;;;;;15.50;100.00;101061.59;4952410;28;45376;-85
2022/10/27 05:11:11;;;;;;;;;8.00;6.00;;;;;15.57;100.00;101071.41;4934289;28;44858;-85
2022/10/27 05:13:37;;;;;;;;;6.00;5.67;;;;;15.55;100.00;101067.84;4936168;28;45426;-85
2022/10/27 05:16:06;;;;;;;;;9.33;6.00;;;;;15.49;100.00;101057.13;4949777;28;45040;-85
2022/10/27 05:18:31;;;;;;;;;5.67;5.67;;;;;15.49;100.00;101051.75;4949449;28;45432;-85
2022/10/27 05:20:57;;;;;;;;;4.00;4.00;;;;;15.54;100.00;101060.72;4949158;28;45345;-85
2022/10/27 05:23:22;;;;;;;;;7.67;5.00;;;;;15.52;100.00;101063.38;4931832;28;45431;-85
2022/10/27 05:25:57;;;;;;;;;6.00;5.00;;;;;15.52;100.00;101058.03;4949181;28;45353;-85
2022/10/27 05:28:24;;;;;;;;;5.33;5.00;;;;;15.46;100.00;101050.00;4931247;28;45423;-85
2022/10/27 05:31:00;;;;;;;;;4.00;4.00;;;;;15.49;100.00;101062.50;4930847;28;44781;-84
2022/10/27 05:33:26;;;;;;;;;4.67;4.67;;;;;15.49;100.00;101060.72;4933267;28;45666;-84
2022/10/27 05:36:03;;;;;;;;;4.33;3.67;;;;;15.39;100.00;101041.06;4931800;28;46772;-84
2022/10/27 05:38:31;;;;;;;;;5.25;3.75;;;;;15.37;100.00;101031.22;4949214;28;44774;-84
2022/10/27 05:47:47;;;;;;;;;5.00;5.00;;;;;15.53;100.00;101043.75;4948519;28;45820;-84
2022/10/27 05:50:16;;;;;;;;;4.00;4.00;;;;;15.53;100.00;101040.16;4931669;28;45288;-84
2022/10/27 05:52:47;;;;;;;;;8.00;7.00;;;;;15.59;100.00;101050.84;4948470;28;44784;-85
2022/10/27 05:55:14;;;;;;;;;6.67;6.67;;;;;15.53;100.00;101027.66;4930267;28;45388;-85
2022/10/27 05:57:51;;;;;;;;;5.00;5.00;;;;;15.56;100.00;101026.75;4948953;28;45224;-84
2022/10/27 06:00:22;;;;;;;;;5.00;5.00;;;;;15.39;100.00;100987.47;4930668;28;45408;-85
2022/10/27 06:02:57;;;;;;;;;5.67;5.00;;;;;15.40;100.00;100983.00;4935061;28;45391;-85
2022/10/27 06:05:25;;;;;;;;;3.67;2.67;;;;;15.50;100.00;101014.25;4935819;28;45144;-85
2022/10/27 06:07:50;;;;;;;;;4.00;4.00;;;;;15.62;100.00;101026.72;4951352;28;45347;-84
2022/10/27 06:10:16;;;;;;;;;8.00;6.00;;;;;15.62;100.00;101028.53;4951833;28;44751;-85
2022/10/27 06:12:45;;;;;;;;;7.00;5.00;;;;;15.56;100.00;101022.28;4935444;28;44852;-85
2022/10/27 06:15:13;;;;;;;;;6.67;6.00;;;;;15.64;100.00;101037.47;4935435;28;44943;-85
2022/10/27 06:17:39;;;;;;;;;7.00;7.00;;;;;15.64;100.00;101037.47;4935022;28;47351;-85
2022/10/27 06:20:05;;;;;;;;;5.25;5.25;;;;;15.55;100.00;101014.22;4951670;28;45381;-84
2022/10/27 06:22:33;;;;;;;;;6.00;6.00;;;;;15.70;100.00;101024.03;4937553;28;45294;-84
2022/10/27 06:24:59;;;;;;;;;5.00;5.00;;;;;15.71;100.00;101015.97;4938255;28;45642;-85
2022/10/27 06:27:25;;;;;;;;;7.00;7.00;;;;;15.71;100.00;101004.34;4938794;28;47084;-84
2022/10/27 06:29:50;;;;;;;;;7.67;6.00;;;;;15.74;100.00;101010.66;4938207;28;45370;-84
2022/10/27 06:32:15;;;;;;;;;5.67;5.00;;;;;15.74;100.00;101010.66;4938424;28;44939;-86
2022/10/27 06:34:41;;;;;;;;;7.00;7.00;;;;;15.75;100.00;101009.78;4938340;28;45483;-85
2022/10/27 06:37:11;;;;;;;;;2.25;2.25;;;;;15.75;100.00;101020.50;4955965;28;45242;-83
2022/10/27 06:39:40;;;;;;;;;3.25;3.25;;;;;15.69;100.00;101000.78;4956264;28;45406;-83
2022/10/27 06:42:05;;;;;;;;;8.75;7.00;;;;;15.71;100.00;101013.28;4938108;28;44785;-83
2022/10/27 06:44:31;;;;;;;;;5.00;5.00;;;;;15.70;100.00;101021.34;4937359;28;44924;-82
2022/10/27 06:46:57;;;;;;;;;5.00;5.00;;;;;15.62;100.00;101005.28;4935397;28;47216;-84
2022/10/27 06:49:31;;;;;;;;;8.00;7.00;;;;;15.71;100.00;101021.34;4954146;28;44794;-85
2022/10/27 06:52:03;;;;;;;;;6.25;6.25;;;;;15.61;100.00;100990.09;4954539;28;45421;-83
2022/10/27 06:54:50;;;;;;;;;6.50;6.50;;;;;15.55;100.00;100974.94;4937089;28;45438;-84
2022/10/27 06:57:18;;;;;;;;;8.75;7.25;;;;;15.60;100.00;100991.00;4935262;28;48037;-85
2022/10/27 07:00:10;;;;;;;;;5.00;5.00;;;;;15.73;100.00;101014.22;4934547;28;45391;-84
2022/10/27 07:02:41;;;;;;;;;7.00;6.50;;;;;15.56;100.00;100989.22;4951420;28;44832;-84
2022/10/27 07:05:10;;;;;;;;;7.25;7.25;;;;;15.71;100.00;101010.59;4935325;28;45354;-84
2022/10/27 07:07:39;;;;;;;;;6.00;5.25;;;;;15.68;100.00;101015.13;4935592;28;47366;-86
2022/10/27 07:10:07;;;;;;;;;8.50;8.50;;;;;15.77;100.00;101039.25;4952779;28;45194;-85
2022/10/27 07:16:28;;;;;;;;;7.00;6.50;;;;;15.94;100.00;101037.41;4938337;28;45176;-86
2022/10/27 07:18:55;;;;;;;;;6.75;4.75;;;;;15.87;100.00;101032.06;4846338;29;47577;-85
2022/10/27 07:21:23;;;;;;;;;8.33;8.00;;;;;16.06;100.00;101060.63;4846185;29;44885;-85
2022/10/27 07:24:07;;;;;;;;;6.00;6.00;;;;;16.05;100.00;101053.47;4849859;29;44793;-86
2022/10/27 07:26:33;;;;;;;;;8.00;7.67;;;;;16.00;100.00;101049.91;4848135;29;45118;-84
2022/10/27 07:29:02;;;;;;;;;5.75;5.75;;;;;16.21;100.00;101089.19;4841976;29;45451;-85
2022/10/27 07:31:27;;;;;;;;;8.00;8.00;;;;;16.16;100.00;101056.13;4860156;29;45442;-86
2022/10/27 07:33:56;;;;;;;;;5.00;5.00;;;;;16.18;100.00;101036.44;4875866;29;45667;-84
2022/10/27 07:36:21;;;;;;;;;7.00;7.00;;;;;16.33;100.00;101059.59;4876969;29;45004;-85
2022/10/27 07:38:54;;;;;;;;;8.50;6.00;;;;;16.59;100.00;101085.44;4858912;29;45506;-86
2022/10/27 07:41:29;;;;;;;;;4.50;4.50;;;;;16.52;100.00;101070.25;4859665;29;45448;-85
2022/10/27 07:43:54;;;;;;;;;6.00;6.00;;;;;16.58;100.00;101067.53;4863657;29;45571;-86
2022/10/27 07:46:20;;;;;;;;;6.50;6.50;;;;;16.49;100.00;101022.84;4880458;29;45029;-86
2022/10/27 07:48:49;;;;;;;;;8.25;8.25;;;;;16.51;100.00;101015.66;4864184;29;45420;-86
2022/10/27 07:51:29;;;;;;;;;6.50;6.50;;;;;16.77;100.00;101060.28;4862796;29;45613;-86
2022/10/27 07:54:34;;;;;;;;;;;;;;;;;;;;;
2022/10/27 07:57:03;;;;;;;;;7.25;6.75;;;;;16.88;100.00;101073.66;4936698;28;64656;-87
2022/10/27 07:59:29;;;;;;;;;5.50;5.00;;;;;16.72;100.00;101051.34;4954732;28;46957;-86
2022/10/27 08:02:07;;;;;;;;;5.00;4.75;;;;;16.92;100.00;101084.38;4958209;28;44747;-85
2022/10/27 08:04:32;;;;;;;;;7.50;5.50;;;;;16.74;100.00;101034.34;4958769;28;44778;-85
2022/10/27 08:07:13;;;;;;;;;6.00;6.00;;;;;16.79;100.00;101037.00;4956239;28;44872;-85
2022/10/27 08:09:58;;;;;;;;;6.33;6.33;;;;;16.80;100.00;101025.31;4956195;28;45357;-86
2022/10/27 08:12:40;;;;;;;;;6.00;6.00;;;;;17.05;100.00;101065.47;4956202;28;44752;-87
2022/10/27 08:23:06;;;;;;;;;8.25;8.25;;;;;17.00;100.00;101042.22;5006420;23;44843;-86
2022/10/27 08:49:08;;;;;;;;;5.67;5.67;;;;;17.67;100.00;101122.31;4914972;28;46728;-85
2022/10/27 08:51:42;;;;;;;;;6.00;6.00;;;;;17.51;100.00;101089.28;4918766;29;45569;-87
2022/10/27 08:54:12;;;;;;;;;6.25;4.25;;;;;17.73;100.00;101125.88;4916499;28;45416;-85
2022/10/27 08:56:42;;;;;;;;;7.50;5.50;;;;;17.71;100.00;101108.81;4917976;28;45208;-85
2022/10/27 08:59:56;;;;;;;;;;;;;;;;;;;;;
2022/10/27 09:03:00;;;;;;;;;9.00;5.50;;;;;18.09;100.00;101131.81;4915816;28;45031;-86
2022/10/27 09:05:48;;;;;;;;;6.00;6.00;;;;;18.24;100.00;101128.06;4918899;29;44814;-85
2022/10/27 09:08:48;;;;;;;;;7.50;7.00;;;;;18.21;100.00;101114.63;4917538;28;45402;-87
2022/10/27 09:11:48;;;;;;;;;8.67;8.00;;;;;18.46;100.00;101128.72;4919274;28;45184;-86
2022/10/27 09:14:38;;;;;;;;;8.67;7.33;;;;;18.54;100.00;101125.91;4915587;28;46329;-87
2022/10/27 09:17:45;;;;;;;;;8.33;7.33;;;;;18.52;100.00;101107.09;4916807;28;44713;-86
2022/10/27 09:20:42;;;;;;;;;7.00;7.00;;;;;18.60;100.00;101109.66;4878738;29;45519;-87
2022/10/27 09:23:46;;;;;;;;;7.50;7.00;;;;;18.46;100.00;101090.09;4878063;29;45092;-86
2022/10/27 09:26:31;;;;;;;;;6.00;6.00;;;;;18.56;100.00;101100.75;4847271;29;47176;-86
2022/10/27 09:29:25;;;;;;;;;5.25;5.25;;;;;18.82;100.00;101134.53;4879158;29;45474;-86
2022/10/27 09:32:02;;;;;;;;;6.00;6.00;;;;;18.66;100.00;101106.00;4878335;29;45569;-85
2022/10/27 09:35:13;;;;;;;;;9.50;7.00;;;;;18.91;100.00;101147.91;4862608;29;45083;-86
2022/10/27 09:37:41;;;;;;;;;7.25;5.75;;;;;18.85;100.00;101126.44;4811652;29;45299;-86
2022/10/27 09:40:24;;;;;;;;;8.25;7.75;;;;;18.75;100.00;101097.78;4806082;29;45580;-84
2022/10/27 09:43:02;;;;;;;;;8.00;8.00;;;;;19.08;100.00;101131.47;4804854;29;45416;-86
2022/10/27 09:49:19;;;;;;;;;10.00;9.00;;;;;19.19;100.00;101120.53;4812501;29;45207;-87
2022/10/27 09:51:57;;;;;;;;;7.00;7.00;;;;;19.14;100.00;101081.97;4823953;29;44811;-86
2022/10/27 09:54:53;;;;;;;;;8.75;8.25;;;;;19.46;100.00;101118.31;4807343;29;44864;-85
2022/10/27 09:57:25;;;;;;;;;9.75;9.00;;;;;19.44;100.00;101101.28;4794183;29;45442;-85
2022/10/27 10:00:13;;;;;;;;;7.75;7.75;;;;;19.56;100.00;101109.16;4824701;29;45713;-86
2022/10/27 10:03:13;;;;;;;;;8.75;6.00;;;;;19.59;100.00;101109.06;4825205;29;45224;-85
2022/10/27 10:06:12;;;;;;;;;8.25;6.50;;;;;19.49;100.00;101078.69;4811114;29;45394;-86
2022/10/27 10:14:03;;;;;;;;;6.00;6.00;;;;;19.94;100.00;101113.00;4145124;26;46275;-84
2022/10/27 10:16:32;;;;;;;;;5.50;5.50;;;;;19.81;100.00;101087.16;4928131;28;44827;-83
2022/10/27 10:19:46;;;;;;;;;9.00;8.50;;;;;19.84;100.00;101079.91;4904402;29;45490;-86
2022/10/27 10:22:47;;;;;;;;;9.00;7.75;;;;;20.16;100.00;101127.00;4908703;28;45346;-85
2022/10/27 10:26:13;;;;;;;;;;;;;;;;;;;;;
2022/10/27 10:29:13;;;;;;;;;;;;;;;;;;;;;
2022/10/27 10:31:52;;;;;;;;;7.25;7.25;;;;;20.30;100.00;101138.41;4805704;29;65924;-87
2022/10/27 10:34:42;;;;;;;;;7.50;7.50;;;;;20.33;100.00;101129.34;4809428;29;45566;-84
2022/10/27 10:37:29;;;;;;;;;9.00;8.00;;;;;20.39;100.00;101140.03;4793282;29;44655;-85
2022/10/27 10:40:25;;;;;;;;;8.50;8.50;;;;;20.43;100.00;101135.47;4808799;29;45427;-85
2022/10/27 10:43:22;;;;;;;;;9.00;9.00;;;;;20.50;100.00;101146.13;4790077;29;45451;-86
2022/10/27 10:52:28;;;;;;;;;6.25;6.25;;;;;20.64;100.00;101129.63;4806827;29;44830;-85
2022/10/27 10:54:54;;;;;;;;;10.00;8.75;;;;;20.49;100.00;101098.38;4792112;29;45539;-86
2022/10/27 11:01:30;;;;;;;;;7.75;7.75;;;;;20.93;100.00;101147.91;4715356;30;45688;-86
2022/10/27 11:16:25;;;;;;;;;10.33;9.33;;;;;21.09;100.00;101120.53;5060840;23;45591;-84
2022/10/27 11:19:33;;;;;;;;;12.50;9.00;;;;;20.99;100.00;101109.03;4951346;28;44872;-84
2022/10/27 11:22:06;;;;;;;;;9.00;9.00;;;;;20.98;100.00;101102.72;4938458;28;45777;-82
2022/10/27 11:25:02;;;;;;;;;7.00;7.00;;;;;21.13;100.00;101100.59;4964122;28;44832;-84
2022/10/27 11:27:49;;;;;;;;;10.50;10.25;;;;;21.20;100.00;101096.81;4955438;28;44885;-84
2022/10/27 11:30:42;;;;;;;;;9.33;9.33;;;;;21.34;100.00;101108.19;4962027;28;45395;-84
2022/10/27 11:33:36;;;;;;;;;13.00;11.50;;;;;21.45;100.00;101096.22;4916779;28;45507;-82
2022/10/27 11:36:31;;;;;;;;;9.75;9.75;;;;;21.25;100.00;101059.72;4918378;28;45430;-84
2022/10/27 11:39:24;;;;;;;;;7.50;7.50;;;;;21.30;100.00;101086.66;4917607;29;45515;-84
2022/10/27 11:42:19;;;;;;;;;9.75;9.75;;;;;21.25;100.00;101100.31;4916288;28;44853;-83
2022/10/27 11:45:33;;;;;;;;;9.75;8.50;;;;;21.31;100.00;101110.97;4909429;28;46631;-84
2022/10/27 11:48:34;;;;;;;;;6.75;5.50;;;;;21.36;100.00;101100.91;4892102;29;45519;-83
2022/10/27 11:51:43;;;;;;;;;9.00;9.00;;;;;21.41;100.00;101095.41;4890597;28;45331;-84
2022/10/27 11:54:23;;;;;;;;;13.00;9.00;;;;;21.29;100.00;101052.41;4916283;28;44856;-85
2022/10/27 11:57:12;;;;;;;;;7.25;6.00;;;;;21.43;100.00;101071.94;4912368;28;45413;-85
2022/10/27 12:00:44;;;;;;;;;10.25;10.00;;;;;21.42;100.00;101075.53;4897876;28;45412;-85
2022/10/27 12:03:52;;;;;;;;;10.75;9.75;;;;;21.24;100.00;101041.69;4888515;29;45382;-83
2022/10/27 12:07:07;;;;;;;;;10.00;9.00;;;;;21.38;100.00;101063.88;4869955;29;45486;-82
2022/10/27 12:09:45;;;;;;;;;11.67;11.67;;;;;21.45;100.00;101075.50;4834163;29;45601;-83
2022/10/27 12:12:42;;;;;;;;;9.50;8.50;;;;;21.49;100.00;101079.91;4843413;29;45184;-83
2022/10/27 12:15:44;;;;;;;;;9.00;7.25;;;;;21.67;100.00;101083.94;4823771;29;45878;-82
2022/10/27 12:18:50;;;;;;;;;11.00;8.75;;;;;21.75;100.00;101081.00;4823531;29;45003;-82
2022/10/27 12:22:12;;;;;;;;;8.00;8.00;;;;;21.85;100.00;101085.25;4751106;29;45471;-83
2022/10/27 12:24:47;;;;;;;;;5.50;5.50;;;;;21.89;100.00;101077.94;4723821;29;45620;-83
2022/10/27 12:27:24;;;;;;;;;7.75;7.00;;;;;21.77;100.00;101046.66;4733727;29;44863;-82
2022/10/27 12:30:29;;;;;;;;;6.25;6.25;;;;;21.97;100.00;101068.66;4734530;29;44855;-82
2022/10/27 12:33:29;;;;;;;;;9.75;7.75;;;;;22.00;97.17;101064.13;4698914;30;46266;-83
2022/10/27 12:36:24;;;;;;;;;6.00;4.25;;;;;21.86;98.11;101023.88;4700537;30;44817;-83
2022/10/27 12:39:37;;;;;;;;;7.25;7.00;;;;;21.94;98.84;101040.78;4676904;30;45472;-83
2022/10/27 12:42:31;;;;;;;;;5.75;5.75;;;;;21.94;100.00;101035.38;4666410;30;44895;-84
2022/10/27 12:45:23;;;;;;;;;7.75;7.75;;;;;22.11;99.27;101067.38;4663986;30;45059;-83
2022/10/27 12:55:09;;;;;;;;;7.75;6.50;;;;;22.15;97.41;101067.25;4680550;30;45509;-84
2022/10/27 12:58:19;;;;;;;;;7.00;7.00;;;;;22.16;98.59;101062.75;4691728;30;45309;-84
2022/10/27 13:01:06;;;;;;;;;7.50;6.75;;;;;22.16;97.20;101063.63;4755953;29;45588;-83
2022/10/27 13:04:00;;;;;;;;;6.50;6.50;;;;;22.16;97.64;101049.19;4796144;29;45463;-83
2022/10/27 13:07:10;;;;;;;;;6.50;6.50;;;;;22.08;97.45;101035.88;4842625;29;45508;-83
2022/10/27 13:10:13;;;;;;;;;6.75;6.50;;;;;22.20;98.06;101039.13;4842522;29;45531;-82
2022/10/27 13:16:51;;;;;;;;;6.75;6.75;;;;;22.26;96.79;101029.06;4056038;26;46167;-82
2022/10/27 13:19:51;;;;;;;;;9.00;8.00;;;;;22.24;96.06;101028.22;4953284;28;44838;-82
2022/10/27 13:22:44;;;;;;;;;8.25;7.75;;;;;22.27;97.98;101029.94;4938513;28;45485;-84
2022/10/27 13:25:23;;;;;;;;;8.25;8.25;;;;;22.35;95.63;101025.16;4954082;28;45729;-83
2022/10/27 13:28:01;;;;;;;;;6.00;5.25;;;;;22.39;97.21;101016.00;4958615;28;44707;-85
2022/10/27 13:30:32;;;;;;;;;10.25;7.00;;;;;22.31;96.64;101001.81;4955863;28;44893;-84
2022/10/27 13:32:59;;;;;;;;;8.25;7.00;;;;;22.44;96.14;101018.56;4960027;28;45044;-83